Allegre, Kentucky
Current Conditions -  °F | °C
As of 6:05 AM on Wednesday 28 Jan 2015 (Local Time) from KHOP Reporting Station
Overcast Overcast  
Wind Chill: 30°   Ceiling: 1900
Heat Index: 30°   Visibility: 10mi
Dew Point: 27°   Wind: 0mph
Humidity: 86%   Direction: NA
Pressure: 30.32"   Gusts: NA
Location:  36.93°N, 87.22°W
Report Text: KHOP 281205Z AUTO 00000KT 10SM OVC019 M01/M03 A3032 RMK AO2
Loading
Personal Weather Stations






























Interactive Weather Map New forecast layout! Learn more

10-Day Weather Forecast

Advertisements
Track Severe Weather on mobile